Time;durP1;ratioP1;P1;durP2;ratioP2;P2;SDS_P1;SDS_P2;PMS_P1;PMS_P2;Temp;Humidity;BMP_temperature;BMP_pressure;BME280_temperature;BME280_humidity;BME280_pressure;Samples;Min_cycle;Max_cycle;Signal;HPM_P1;HPM_P2
2021/09/07 00:01:29;;;;;;;24.38;8.80;;;;;;;23.29;45.09;102114.34;5000097;28;20022;-79
2021/09/07 00:03:54;;;;;;;16.42;6.93;;;;;;;23.24;45.02;102116.75;4999046;28;20489;-79
2021/09/07 00:06:19;;;;;;;17.85;7.05;;;;;;;23.21;45.41;102112.50;4998841;28;20497;-80
2021/09/07 00:08:45;;;;;;;15.23;8.02;;;;;;;23.25;45.70;102122.06;5015417;28;20402;-80
2021/09/07 00:11:10;;;;;;;14.52;7.03;;;;;;;23.23;45.54;102124.09;5015241;28;20029;-80
2021/09/07 00:13:36;;;;;;;12.55;5.95;;;;;;;23.21;45.34;102126.19;5015442;28;20025;-81
2021/09/07 00:16:02;;;;;;;14.20;7.20;;;;;;;23.15;45.55;102121.44;4999817;28;20026;-78
2021/09/07 00:18:28;;;;;;;16.73;7.15;;;;;;;23.14;45.83;102127.94;5015631;28;20034;-78
2021/09/07 00:20:54;;;;;;;14.75;5.85;;;;;;;23.14;45.98;102131.50;5015057;28;20022;-79
2021/09/07 00:23:19;;;;;;;10.15;5.70;;;;;;;23.14;46.15;102133.41;4999044;28;20112;-79
2021/09/07 00:25:45;;;;;;;9.13;5.13;;;;;;;23.07;45.76;102129.69;4997872;28;20029;-79
2021/09/07 00:28:10;;;;;;;15.73;7.15;;;;;;;23.07;45.89;102137.88;4998520;28;20033;-79
2021/09/07 00:30:35;;;;;;;16.20;7.15;;;;;;;23.00;46.13;102123.25;4998451;28;20045;-79
2021/09/07 00:33:01;;;;;;;14.05;7.38;;;;;;;23.01;45.82;102133.13;5014763;28;20037;-79
2021/09/07 00:35:26;;;;;;;15.20;6.68;;;;;;;22.98;45.72;102122.53;4998257;28;20144;-79
2021/09/07 00:37:51;;;;;;;17.70;7.10;;;;;;;22.98;45.51;102128.00;5014409;28;20022;-79
2021/09/07 00:40:17;;;;;;;12.35;6.47;;;;;;;22.96;46.22;102127.34;5014715;28;20026;-79
2021/09/07 00:42:42;;;;;;;13.52;7.13;;;;;;;22.89;45.94;102118.16;5014689;28;20159;-79
2021/09/07 00:45:12;;;;;;;13.43;7.55;;;;;;;22.92;45.79;102126.00;4997841;28;20153;-79
2021/09/07 00:47:39;;;;;;;11.82;5.63;;;;;;;22.90;45.92;102125.31;5014816;28;20030;-79
2021/09/07 00:50:05;;;;;;;8.27;4.00;;;;;;;22.89;46.15;102135.38;5014186;28;20045;-79
2021/09/07 00:52:30;;;;;;;9.90;5.20;;;;;;;22.87;45.69;102123.78;5015581;28;20021;-79
2021/09/07 00:54:56;;;;;;;9.80;5.53;;;;;;;22.85;45.45;102122.28;4982043;28;20022;-79
2021/09/07 00:57:25;;;;;;;8.18;4.63;;;;;;;22.81;46.18;102115.47;4998104;28;20026;-79
2021/09/07 00:59:53;;;;;;;8.60;4.93;;;;;;;22.81;45.48;102121.75;5017281;28;20111;-79
2021/09/07 01:02:18;;;;;;;7.15;4.13;;;;;;;22.72;46.05;102111.91;5017384;28;20025;-79
2021/09/07 01:04:44;;;;;;;6.80;4.43;;;;;;;22.68;45.51;102102.38;5017354;28;20021;-79
2021/09/07 01:07:09;;;;;;;12.52;4.85;;;;;;;22.67;45.79;102114.31;5017637;28;20113;-79
2021/09/07 01:09:36;;;;;;;12.40;6.00;;;;;;;22.68;46.22;102120.63;5034017;28;20029;-79
2021/09/07 01:12:02;;;;;;;18.63;7.80;;;;;;;22.61;46.54;102109.53;5002004;28;20045;-79
2021/09/07 01:14:38;;;;;;;10.85;5.40;;;;;;;22.59;45.74;102106.97;5001331;28;20080;-79
2021/09/07 01:17:10;;;;;;;12.27;5.28;;;;;;;22.61;46.65;102117.75;5001768;28;20021;-79
2021/09/07 01:19:35;;;;;;;10.80;5.75;;;;;;;22.57;45.84;102109.03;5017782;28;20029;-79
2021/09/07 01:22:01;;;;;;;9.60;5.18;;;;;;;22.51;46.64;102098.81;4984711;28;20447;-79
2021/09/07 01:24:27;;;;;;;8.55;5.05;;;;;;;22.55;47.00;102111.09;5000749;28;20037;-79
2021/09/07 01:26:53;;;;;;;10.93;6.07;;;;;;;22.46;46.23;102095.75;5033317;28;20029;-79
2021/09/07 01:29:19;;;;;;;10.55;5.80;;;;;;;22.48;46.42;102099.16;5033576;28;20033;-81
2021/09/07 01:31:45;;;;;;;17.42;7.43;;;;;;;22.48;45.90;102106.50;5000651;28;20385;-79
2021/09/07 01:34:19;;;;;;;11.98;6.43;;;;;;;22.52;46.17;102111.44;5001215;28;20029;-79
2021/09/07 01:36:44;;;;;;;9.65;5.93;;;;;;;22.52;46.34;102108.72;5017516;28;20071;-79
2021/09/07 01:39:10;;;;;;;14.52;5.03;;;;;;;22.49;46.63;102100.88;5017378;28;20026;-79
2021/09/07 01:41:35;;;;;;;13.68;6.70;;;;;;;22.47;46.13;102099.34;5017595;28;20017;-79
2021/09/07 01:44:01;;;;;;;14.38;7.07;;;;;;;22.46;46.71;102101.22;4984875;28;20174;-80
2021/09/07 01:46:27;;;;;;;12.63;6.70;;;;;;;22.42;46.20;102094.41;5017278;28;20036;-82
2021/09/07 01:48:52;;;;;;;11.13;6.43;;;;;;;22.42;46.34;102099.00;5001541;28;20026;-79
2021/09/07 01:51:18;;;;;;;13.57;7.22;;;;;;;22.40;46.55;102107.38;5017958;28;20044;-79
2021/09/07 01:53:43;;;;;;;17.33;7.22;;;;;;;22.34;46.51;102091.69;5017496;28;20091;-79
2021/09/07 01:56:08;;;;;;;11.88;7.03;;;;;;;22.33;46.07;102083.69;5001221;28;20033;-79
2021/09/07 01:58:34;;;;;;;12.35;6.50;;;;;;;22.37;46.91;102096.81;4981351;28;20053;-79
2021/09/07 02:00:59;;;;;;;15.40;6.30;;;;;;;22.37;46.13;102101.41;4997225;28;20030;-79
2021/09/07 02:03:25;;;;;;;9.25;5.80;;;;;;;22.35;46.58;102096.13;4997847;28;20069;-79
2021/09/07 02:05:50;;;;;;;11.45;5.78;;;;;;;22.30;46.44;102090.34;5013927;28;20041;-79
2021/09/07 02:08:15;;;;;;;12.43;6.78;;;;;;;22.31;46.41;102092.03;4997659;28;20394;-79
2021/09/07 02:10:41;;;;;;;13.93;6.82;;;;;;;22.33;47.19;102092.75;4997464;28;20062;-79
2021/09/07 02:13:06;;;;;;;14.18;6.75;;;;;;;22.27;46.67;102085.25;5013976;28;20026;-79
2021/09/07 02:15:32;;;;;;;14.80;7.35;;;;;;;22.30;47.25;102082.16;4997733;28;20025;-79
2021/09/07 02:17:57;;;;;;;11.15;4.90;;;;;;;22.25;46.93;102081.81;4997989;28;20508;-79
2021/09/07 02:20:23;;;;;;;8.60;4.28;;;;;;;22.24;47.32;102084.72;4998127;28;20113;-79
2021/09/07 02:22:48;;;;;;;6.75;4.57;;;;;;;22.23;47.11;102088.47;5013841;28;20432;-79
2021/09/07 02:25:14;;;;;;;10.50;4.78;;;;;;;22.23;46.73;102093.94;4998298;28;20048;-79
2021/09/07 02:27:39;;;;;;;9.60;5.68;;;;;;;22.10;47.38;102075.38;4998382;28;20087;-79
2021/09/07 02:30:06;;;;;;;10.20;6.00;;;;;;;22.07;46.98;102073.00;4998082;28;20033;-79
2021/09/07 02:32:32;;;;;;;13.23;6.90;;;;;;;22.02;47.13;102065.34;4997390;28;20504;-79
2021/09/07 02:34:57;;;;;;;13.77;6.35;;;;;;;22.01;46.96;102063.63;4996704;28;20032;-79
2021/09/07 02:37:23;;;;;;;13.65;6.78;;;;;;;22.09;46.83;102075.53;4997184;28;20041;-79
2021/09/07 02:39:48;;;;;;;14.20;6.70;;;;;;;22.09;46.76;102081.00;5013450;28;20060;-79
2021/09/07 02:42:13;;;;;;;16.67;7.25;;;;;;;22.11;47.12;102079.78;4997037;28;20589;-79
2021/09/07 02:44:39;;;;;;;16.10;6.82;;;;;;;22.07;47.78;102083.91;5013726;28;20124;-79
2021/09/07 02:47:12;;;;;;;13.00;7.05;;;;;;;22.03;46.83;102079.81;4998878;28;20033;-79
2021/09/07 02:49:37;;;;;;;12.68;6.10;;;;;;;22.07;47.08;102086.66;5003978;28;20049;-79
2021/09/07 02:52:03;;;;;;;12.00;5.05;;;;;;;22.07;46.46;102081.19;5001110;28;20034;-79
2021/09/07 02:54:29;;;;;;;18.45;8.32;;;;;;;22.06;46.66;102095.84;5001736;28;20033;-79
2021/09/07 02:56:54;;;;;;;17.23;7.22;;;;;;;22.02;47.15;102086.31;5000923;28;20034;-79
2021/09/07 02:59:20;;;;;;;12.57;7.53;;;;;;;22.00;47.05;102074.69;5003880;28;20042;-79
2021/09/07 03:01:46;;;;;;;15.38;6.32;;;;;;;21.98;46.63;102082.22;5019999;28;20041;-79
2021/09/07 03:04:11;;;;;;;11.20;5.55;;;;;;;21.89;46.97;102066.88;5020535;28;20026;-79
2021/09/07 03:06:37;;;;;;;12.65;6.70;;;;;;;21.94;46.81;102089.06;4987506;28;20121;-79
2021/09/07 03:09:02;;;;;;;9.63;5.60;;;;;;;21.89;46.85;102085.97;5003672;28;20084;-79
2021/09/07 03:11:28;;;;;;;14.60;6.47;;;;;;;21.87;47.05;102086.16;5004246;28;20499;-79
2021/09/07 03:13:53;;;;;;;10.75;5.95;;;;;;;21.85;46.65;102090.91;4987701;28;20045;-79
2021/09/07 03:16:19;;;;;;;10.43;5.20;;;;;;;21.81;46.97;102083.22;4987190;28;20034;-79
2021/09/07 03:18:44;;;;;;;11.18;5.32;;;;;;;21.77;47.55;102070.97;5019487;28;20037;-79
2021/09/07 03:21:09;;;;;;;9.63;5.03;;;;;;;21.76;46.91;102083.75;5019564;28;20037;-79
2021/09/07 03:23:35;;;;;;;10.45;4.90;;;;;;;21.76;47.07;102080.16;5019678;28;20463;-79
2021/09/07 03:26:00;;;;;;;7.68;4.32;;;;;;;21.74;47.62;102083.06;5019715;28;20083;-79
2021/09/07 03:28:26;;;;;;;10.23;5.90;;;;;;;21.73;47.11;102080.50;5003179;28;20116;-79
2021/09/07 03:30:51;;;;;;;8.07;5.55;;;;;;;21.70;47.19;102080.84;5003459;28;20048;-79
2021/09/07 03:33:17;;;;;;;14.00;6.40;;;;;;;21.69;47.10;102073.69;5019788;28;20031;-79
2021/09/07 03:35:43;;;;;;;10.65;6.00;;;;;;;21.70;47.48;102075.38;5003249;28;20025;-79
2021/09/07 03:38:09;;;;;;;13.57;6.15;;;;;;;21.72;47.20;102076.09;5019502;28;20033;-79
2021/09/07 03:40:34;;;;;;;20.83;7.13;;;;;;;21.73;47.31;102084.09;5002667;28;20021;-79
2021/09/07 03:43:00;;;;;;;10.98;6.18;;;;;;;21.77;47.50;102081.88;5003125;28;20022;-79
2021/09/07 03:45:25;;;;;;;14.18;6.50;;;;;;;21.74;47.06;102076.75;5002830;28;20477;-80
2021/09/07 03:47:51;;;;;;;9.07;5.47;;;;;;;21.73;47.56;102078.63;4986975;28;20036;-79
2021/09/07 03:50:16;;;;;;;11.13;5.57;;;;;;;21.68;47.69;102067.38;4987487;28;20026;-80
2021/09/07 03:52:42;;;;;;;8.75;5.15;;;;;;;21.62;47.41;102061.75;4987223;28;20127;-79
2021/09/07 03:55:08;;;;;;;10.48;5.85;;;;;;;21.61;47.38;102063.63;5019686;28;20482;-79
2021/09/07 03:57:34;;;;;;;10.63;5.93;;;;;;;21.67;47.45;102075.72;5019323;28;20029;-79
2021/09/07 03:59:59;;;;;;;8.82;4.28;;;;;;;21.62;47.26;102070.78;5001903;28;20029;-79
2021/09/07 04:02:25;;;;;;;6.10;3.88;;;;;;;21.62;47.38;102075.38;5003428;28;20037;-79
2021/09/07 04:04:51;;;;;;;8.30;4.20;;;;;;;21.59;47.05;102071.13;5019467;28;20116;-79
2021/09/07 04:07:16;;;;;;;8.90;3.55;;;;;;;21.53;46.84;102073.69;5002858;28;20036;-79
2021/09/07 04:09:42;;;;;;;6.07;3.97;;;;;;;21.55;47.66;102077.09;5003855;28;20091;-79
2021/09/07 04:12:07;;;;;;;8.43;4.47;;;;;;;21.49;47.17;102073.19;5019117;28;20029;-79
2021/09/07 04:14:33;;;;;;;11.93;5.00;;;;;;;21.45;46.84;102069.94;5018490;28;20029;-79
2021/09/07 04:16:58;;;;;;;7.63;4.00;;;;;;;21.46;47.62;102068.06;4986390;28;20060;-79
2021/09/07 04:19:23;;;;;;;8.40;4.80;;;;;;;21.46;47.19;102066.19;5002449;28;20034;-79
2021/09/07 04:21:49;;;;;;;6.95;3.90;;;;;;;21.41;47.34;102054.94;4986314;28;20054;-79
2021/09/07 04:24:14;;;;;;;14.27;5.22;;;;;;;21.45;47.13;102063.63;5002367;28;20029;-79
2021/09/07 04:26:40;;;;;;;10.63;5.50;;;;;;;21.41;47.76;102071.28;5018510;28;20025;-79
2021/09/07 04:29:05;;;;;;;9.10;5.07;;;;;;;21.38;47.17;102074.34;5018310;28;20543;-79
2021/09/07 04:31:31;;;;;;;14.00;6.60;;;;;;;21.42;47.65;102077.59;5001776;28;20034;-79
2021/09/07 04:33:57;;;;;;;8.75;5.00;;;;;;;21.33;47.45;102063.09;5018645;28;20036;-79
2021/09/07 04:36:22;;;;;;;7.13;4.10;;;;;;;21.44;47.45;102081.84;5002215;28;20025;-79
2021/09/07 04:38:48;;;;;;;11.63;5.20;;;;;;;21.40;47.78;102080.50;5018850;28;20464;-79
2021/09/07 04:41:13;;;;;;;11.93;5.88;;;;;;;21.41;47.80;102076.75;5018467;28;20025;-79
2021/09/07 04:43:39;;;;;;;11.40;5.82;;;;;;;21.45;47.86;102086.31;5018983;28;20034;-79
2021/09/07 04:46:04;;;;;;;11.25;5.68;;;;;;;21.40;47.64;102074.19;5002980;28;20025;-80
2021/09/07 04:48:32;;;;;;;16.63;6.28;;;;;;;21.47;47.53;102080.66;5002191;28;20031;-80
2021/09/07 04:50:58;;;;;;;13.15;5.40;;;;;;;21.51;47.45;102083.91;5018537;28;20021;-79
2021/09/07 04:53:23;;;;;;;14.98;6.85;;;;;;;21.52;47.96;102077.44;5002372;28;20032;-79
2021/09/07 04:55:49;;;;;;;10.65;6.05;;;;;;;21.54;47.71;102076.25;5019281;28;20037;-79
2021/09/07 04:58:14;;;;;;;12.30;5.90;;;;;;;21.62;47.72;102083.56;4986463;28;20095;-79
2021/09/07 05:00:40;;;;;;;17.30;5.97;;;;;;;21.60;47.84;102074.72;5019659;28;20124;-79
2021/09/07 05:03:05;;;;;;;11.93;5.63;;;;;;;21.59;47.77;102073.00;5019637;28;20037;-79
2021/09/07 05:05:31;;;;;;;11.98;6.13;;;;;;;21.62;47.73;102073.53;5003275;28;20025;-79
2021/09/07 05:07:58;;;;;;;13.05;6.72;;;;;;;21.65;47.96;102083.22;5002403;28;20104;-79
2021/09/07 05:10:24;;;;;;;13.40;6.50;;;;;;;21.71;48.59;102088.00;4986254;28;20021;-79
2021/09/07 05:12:50;;;;;;;13.82;6.43;;;;;;;21.71;48.33;102088.00;5002988;28;20120;-79
2021/09/07 05:15:15;;;;;;;16.63;7.00;;;;;;;21.72;48.20;102081.53;5003647;28;20501;-79
2021/09/07 05:17:40;;;;;;;11.25;5.32;;;;;;;21.82;48.23;102090.41;5001908;28;20044;-78
2021/09/07 05:20:06;;;;;;;11.65;5.15;;;;;;;21.78;48.17;102078.09;5018689;28;20048;-79
2021/09/07 05:22:32;;;;;;;12.80;6.47;;;;;;;21.86;48.33;102080.84;4986819;28;20033;-79
2021/09/07 05:24:57;;;;;;;14.07;6.40;;;;;;;21.86;48.99;102070.75;5003741;28;20025;-79
2021/09/07 05:27:23;;;;;;;14.02;7.40;;;;;;;21.91;48.29;102079.34;5008020;28;20028;-80
2021/09/07 05:29:48;;;;;;;18.00;7.78;;;;;;;21.96;48.13;102076.09;5024959;28;20041;-79
2021/09/07 05:32:14;;;;;;;17.60;7.18;;;;;;;21.96;48.31;102066.03;5008486;28;20034;-79
2021/09/07 05:34:39;;;;;;;14.02;7.00;;;;;;;22.02;48.87;102073.53;5008059;28;20028;-79
2021/09/07 05:37:05;;;;;;;12.10;6.07;;;;;;;22.04;47.93;102073.34;5026521;28;20428;-79
2021/09/07 05:39:34;;;;;;;12.80;6.30;;;;;;;21.98;48.50;102053.06;5026378;28;20465;-79
2021/09/07 05:41:59;;;;;;;14.57;6.63;;;;;;;22.11;48.69;102062.59;5009005;28;20026;-79
2021/09/07 05:44:24;;;;;;;16.35;6.75;;;;;;;22.13;48.34;102061.38;5026272;28;20498;-79
2021/09/07 05:46:50;;;;;;;11.07;6.55;;;;;;;22.21;48.59;102069.56;5024264;28;20160;-79
2021/09/07 05:49:34;;;;;;;14.77;7.38;;;;;;;22.32;48.41;102080.09;4992218;28;20036;-79
2021/09/07 05:52:03;;;;;;;15.32;5.90;;;;;;;22.34;49.16;102080.78;5024695;28;20025;-79
2021/09/07 05:54:29;;;;;;;14.73;7.35;;;;;;;22.35;48.69;102074.28;5024700;28;20047;-79
2021/09/07 05:56:57;;;;;;;14.52;8.23;;;;;;;22.42;49.10;102082.63;5008387;28;20037;-78
2021/09/07 05:59:24;;;;;;;14.55;6.97;;;;;;;22.50;48.19;102079.88;5005074;28;20053;-78
2021/09/07 06:01:53;;;;;;;11.10;6.40;;;;;;;22.58;48.69;102088.88;5021155;28;20045;-79
2021/09/07 06:04:20;;;;;;;13.63;6.38;;;;;;;22.62;48.41;102081.19;5022070;28;20053;-79
2021/09/07 06:06:45;;;;;;;17.52;6.78;;;;;;;22.67;49.22;102086.16;5005621;28;20026;-78
2021/09/07 06:09:11;;;;;;;13.27;7.28;;;;;;;22.73;49.05;102089.00;5005275;28;20493;-78
2021/09/07 06:11:38;;;;;;;17.08;8.60;;;;;;;22.78;48.65;102083.03;5020848;28;20030;-78
2021/09/07 06:14:03;;;;;;;15.00;7.32;;;;;;;22.83;49.00;102088.81;5005349;28;20406;-78
2021/09/07 06:16:29;;;;;;;15.60;6.93;;;;;;;22.89;48.91;102093.56;5005515;28;20037;-78
2021/09/07 06:18:54;;;;;;;17.58;7.15;;;;;;;22.91;48.47;102089.63;5004478;28;20497;-78
2021/09/07 06:21:20;;;;;;;15.82;7.03;;;;;;;22.97;48.81;102099.84;5004945;28;20035;-78
2021/09/07 06:23:45;;;;;;;11.23;6.53;;;;;;;23.05;48.42;102101.69;5007615;28;20034;-78
2021/09/07 06:26:13;;;;;;;18.88;7.30;;;;;;;23.12;48.91;102108.13;5009493;28;20034;-78
2021/09/07 06:28:39;;;;;;;13.60;7.47;;;;;;;23.15;49.05;102097.69;5025083;28;20478;-79
2021/09/07 06:31:08;;;;;;;11.77;6.57;;;;;;;23.22;48.34;102096.97;5025798;28;20026;-79
2021/09/07 06:33:34;;;;;;;13.18;6.88;;;;;;;23.30;48.54;102097.75;5010354;28;20033;-80
2021/09/07 06:35:59;;;;;;;13.68;6.75;;;;;;;23.43;48.15;102102.66;5023282;28;20394;-79
2021/09/07 06:38:25;;;;;;;17.02;7.07;;;;;;;23.43;48.08;102084.34;4992870;28;20490;-80
2021/09/07 06:40:51;;;;;;;15.75;7.53;;;;;;;23.65;48.58;102099.06;5024563;28;20018;-79
2021/09/07 06:43:19;;;;;;;18.35;8.48;;;;;;;23.85;48.44;102104.88;5024967;28;20371;-79
2021/09/07 06:45:45;;;;;;;18.73;8.23;;;;;;;23.98;47.70;102107.84;5007677;28;20037;-80
2021/09/07 06:48:10;;;;;;;15.15;7.68;;;;;;;24.00;48.40;102092.06;5008817;28;20030;-79
2021/09/07 06:50:38;;;;;;;16.35;8.90;;;;;;;24.11;47.93;102088.91;4994619;28;20022;-79
2021/09/07 06:53:04;;;;;;;12.13;7.45;;;;;;;24.23;48.22;102081.97;5009531;28;20026;-79
2021/09/07 06:55:29;;;;;;;14.38;7.88;;;;;;;24.52;47.54;102103.88;5025124;28;20037;-80
2021/09/07 06:58:00;;;;;;;20.67;10.00;;;;;;;24.73;47.54;102109.44;5009419;28;20036;-78
2021/09/07 07:00:26;;;;;;;16.90;9.18;;;;;;;24.93;47.21;102106.13;5028960;28;20036;-80
2021/09/07 07:02:51;;;;;;;13.98;8.02;;;;;;;25.10;47.17;102113.94;5027172;28;20029;-80
2021/09/07 07:05:17;;;;;;;15.65;8.18;;;;;;;25.19;46.88;102107.28;5011650;28;20127;-80
2021/09/07 07:07:42;;;;;;;13.48;8.07;;;;;;;25.51;46.73;102122.47;5011234;28;20532;-79
2021/09/07 07:10:08;;;;;;;20.35;9.35;;;;;;;25.64;46.43;102111.59;5028914;28;20114;-79
2021/09/07 07:12:33;;;;;;;24.83;9.35;;;;;;;25.82;46.33;102102.91;5012936;28;20021;-80
2021/09/07 07:14:59;;;;;;;20.02;8.75;;;;;;;26.03;45.89;102113.84;4995651;28;20442;-80
2021/09/07 07:17:24;;;;;;;22.33;9.88;;;;;;;26.21;46.09;102110.63;5011531;28;20022;-80
2021/09/07 07:19:51;;;;;;;24.05;10.27;;;;;;;26.38;45.87;102114.78;5012337;28;20104;-81
2021/09/07 07:22:17;;;;;;;24.48;9.55;;;;;;;26.50;45.74;102103.00;5011784;28;20055;-82
2021/09/07 07:24:42;;;;;;;19.63;9.82;;;;;;;26.63;44.79;102094.81;5026977;28;20063;-81
2021/09/07 07:27:07;;;;;;;19.00;10.48;;;;;;;26.90;44.79;102112.34;5028111;28;20025;-81
2021/09/07 07:29:33;;;;;;;19.58;9.73;;;;;;;26.99;44.69;102097.34;5013550;28;20025;-81
2021/09/07 07:31:59;;;;;;;19.85;9.80;;;;;;;27.17;44.30;102111.38;5012607;28;20093;-81
2021/09/07 07:34:34;;;;;;;18.70;10.38;;;;;;;27.33;44.65;102120.31;5029389;28;20124;-80
2021/09/07 07:37:01;;;;;;;17.33;8.93;;;;;;;27.47;44.36;102122.09;5029050;28;20029;-79
2021/09/07 07:39:26;;;;;;;18.95;9.05;;;;;;;27.60;44.62;102119.34;5011437;28;20053;-81
2021/09/07 07:41:55;;;;;;;22.80;10.93;;;;;;;27.82;43.93;102117.25;5010936;28;20033;-83
2021/09/07 07:44:20;;;;;;;20.50;9.38;;;;;;;27.94;43.97;102110.91;5011166;28;20022;-80
2021/09/07 07:46:46;;;;;;;20.70;10.70;;;;;;;28.11;43.96;102120.44;5027556;28;20028;-80
2021/09/07 07:49:14;;;;;;;20.05;10.60;;;;;;;28.27;43.20;102128.28;5011754;28;20048;-82
2021/09/07 07:51:39;;;;;;;20.85;9.98;;;;;;;28.27;43.66;102106.25;5026240;28;20030;-85
2021/09/07 07:54:08;;;;;;;19.20;9.93;;;;;;;28.35;43.17;102096.03;5040800;28;20159;-82
2021/09/07 07:56:34;;;;;;;22.77;11.13;;;;;;;28.58;43.06;102111.06;5023681;28;20032;-81
2021/09/07 07:58:59;;;;;;;22.63;10.20;;;;;;;28.83;42.91;102125.00;5006940;28;20123;-80
2021/09/07 08:01:24;;;;;;;23.48;9.63;;;;;;;28.98;42.51;102121.97;5022998;28;20021;-82
2021/09/07 08:03:50;;;;;;;22.10;9.77;;;;;;;29.22;42.49;102124.84;5006895;28;20021;-82
2021/09/07 08:06:15;;;;;;;24.23;10.30;;;;;;;29.43;42.54;102124.50;4990665;28;20033;-83
2021/09/07 08:08:41;;;;;;;21.98;10.95;;;;;;;29.68;42.36;102134.75;5022318;28;20029;-81
2021/09/07 08:11:07;;;;;;;21.98;10.60;;;;;;;29.79;41.50;102122.97;5039377;28;20022;-80
2021/09/07 08:13:32;;;;;;;20.75;10.65;;;;;;;30.01;41.66;102124.34;5038438;28;20057;-81
2021/09/07 08:15:57;;;;;;;21.33;10.65;;;;;;;30.23;41.75;102127.53;4989162;28;20021;-80
2021/09/07 08:18:23;;;;;;;23.70;11.38;;;;;;;30.46;40.81;102128.59;5021422;28;20084;-81
2021/09/07 08:20:49;;;;;;;20.95;11.57;;;;;;;30.66;41.08;102127.53;4988633;28;20033;-80
2021/09/07 08:23:14;;;;;;;22.98;12.20;;;;;;;30.80;40.59;102129.06;5020583;28;20123;-81
2021/09/07 08:25:40;;;;;;;19.77;11.20;;;;;;;30.92;40.87;102121.69;5004126;28;20128;-82
2021/09/07 08:28:05;;;;;;;27.60;11.65;;;;;;;31.06;40.59;102124.09;5005369;28;20481;-80
2021/09/07 08:30:31;;;;;;;22.90;11.63;;;;;;;31.21;40.39;102123.69;5021992;28;20025;-81
2021/09/07 08:32:56;;;;;;;23.45;11.45;;;;;;;31.33;40.23;102119.03;5005542;28;20023;-81
2021/09/07 08:35:22;;;;;;;26.65;12.90;;;;;;;31.42;39.67;102123.16;5005217;28;20570;-82
2021/09/07 08:37:47;;;;;;;27.58;13.48;;;;;;;31.56;39.28;102129.38;5021918;28;20109;-81
2021/09/07 08:40:15;;;;;;;25.60;13.20;;;;;;;31.62;39.33;102129.28;5005436;28;20035;-82
2021/09/07 08:42:41;;;;;;;25.10;13.10;;;;;;;31.71;39.16;102130.63;5038900;28;20116;-81
2021/09/07 08:45:09;;;;;;;26.38;12.65;;;;;;;31.76;38.75;102129.94;5021691;28;20053;-81
2021/09/07 08:47:35;;;;;;;27.17;13.57;;;;;;;31.90;39.21;102133.31;5005496;28;20021;-80
2021/09/07 08:50:02;;;;;;;27.13;13.95;;;;;;;32.05;38.93;102128.22;4996891;28;20105;-82
2021/09/07 08:52:28;;;;;;;22.10;11.85;;;;;;;32.16;38.79;102121.81;5039359;28;20029;-80
2021/09/07 08:54:53;;;;;;;23.77;14.02;;;;;;;32.37;37.73;102115.66;5007265;28;20116;-80
2021/09/07 08:57:19;;;;;;;25.55;13.05;;;;;;;32.57;37.74;102120.84;5005808;28;20043;-81
2021/09/07 08:59:44;;;;;;;24.80;12.48;;;;;;;32.73;37.78;102129.28;5005677;28;20056;-83
2021/09/07 09:02:17;;;;;;;24.00;12.75;;;;;;;32.89;36.51;102133.22;5023339;28;20378;-81
2021/09/07 09:04:47;;;;;;;25.05;13.43;;;;;;;32.99;36.46;102121.50;5022664;28;20543;-81
2021/09/07 09:07:27;;;;;;;30.45;12.93;;;;;;;33.17;36.96;102121.31;5004554;28;20032;-82
2021/09/07 09:09:54;;;;;;;23.55;12.82;;;;;;;33.35;36.86;102126.69;5021392;28;20029;-81
2021/09/07 09:12:31;;;;;;;23.80;12.95;;;;;;;33.53;35.74;102137.59;5021668;28;20120;-81
2021/09/07 09:14:58;;;;;;;25.63;13.07;;;;;;;33.66;36.75;102128.13;5020998;28;20028;-81
2021/09/07 09:17:30;;;;;;;26.45;15.15;;;;;;;33.81;35.82;102132.03;5020594;28;20049;-82
2021/09/07 09:19:58;;;;;;;28.40;13.63;;;;;;;33.97;35.53;102128.44;5020017;28;20036;-82
2021/09/07 09:22:53;;;;;;;27.08;12.77;;;;;;;34.17;35.62;102122.38;5020633;28;20056;-83
2021/09/07 09:27:48;;;;;;;21.42;13.02;;;;;;;34.39;34.95;102128.00;5037424;28;20033;-81
2021/09/07 09:30:14;;;;;;;24.80;12.23;;;;;;;34.46;35.16;102123.06;5020774;28;20029;-82
2021/09/07 09:32:50;;;;;;;26.63;13.85;;;;;;;34.69;35.03;102122.88;5004635;28;20079;-81
2021/09/07 09:35:16;;;;;;;26.02;13.05;;;;;;;34.84;34.19;102116.69;5004555;28;20453;-82
2021/09/07 09:37:58;;;;;;;21.13;11.65;;;;;;;35.07;34.19;102120.06;5035787;28;20017;-83
2021/09/07 09:40:24;;;;;;;22.80;12.07;;;;;;;35.34;34.25;102119.25;5018807;28;20037;-80
2021/09/07 09:42:50;;;;;;;25.00;11.93;;;;;;;35.73;33.26;102108.78;5018337;28;20025;-82
2021/09/07 09:45:16;;;;;;;21.85;12.70;;;;;;;36.37;32.84;102116.00;5001162;28;20038;-81
2021/09/07 09:47:51;;;;;;;23.77;11.82;;;;;;;37.24;31.61;102113.34;5017033;28;20025;-81
2021/09/07 09:50:18;;;;;;;21.85;11.32;;;;;;;38.82;30.33;102120.63;5034085;28;20026;-81
2021/09/07 09:52:44;;;;;;;24.65;12.18;;;;;;;38.88;29.70;102102.66;5017826;28;20029;-81
2021/09/07 09:55:12;;;;;;;23.70;12.82;;;;;;;38.54;30.14;102112.84;5017178;28;20037;-81
2021/09/07 09:57:38;;;;;;;21.48;12.50;;;;;;;38.34;30.83;102111.78;5002303;28;20075;-81
2021/09/07 10:00:07;;;;;;;32.58;14.23;;;;;;;38.22;30.31;102105.59;5001244;28;20592;-81
2021/09/07 10:02:32;;;;;;;23.75;11.65;;;;;;;38.17;29.93;102102.81;5035850;28;20025;-81
2021/09/07 10:05:02;;;;;;;23.55;11.55;;;;;;;38.32;30.11;102105.63;5019770;28;20036;-80
2021/09/07 10:07:28;;;;;;;23.13;12.20;;;;;;;38.28;30.43;102110.09;5003438;28;20097;-81
2021/09/07 10:09:56;;;;;;;21.23;12.05;;;;;;;37.87;29.83;102103.72;5034723;28;20057;-80
2021/09/07 10:12:46;;;;;;;23.20;12.18;;;;;;;38.04;30.01;102100.63;5001838;28;20026;-83
2021/09/07 10:15:31;;;;;;;19.33;12.05;;;;;;;38.33;29.87;102107.31;5021712;28;20026;-80
2021/09/07 10:18:27;;;;;;;17.67;10.90;;;;;;;38.71;29.05;102113.34;5017703;28;20029;-80
2021/09/07 10:21:03;;;;;;;17.38;10.02;;;;;;;38.89;29.00;102098.75;5002699;28;20048;-80
2021/09/07 10:24:03;;;;;;;17.80;10.32;;;;;;;39.31;28.82;102092.66;5022905;28;20064;-83
2021/09/07 10:26:41;;;;;;;20.83;10.65;;;;;;;39.58;27.38;102096.66;5017559;28;20116;-82
2021/09/07 10:29:11;;;;;;;23.33;11.20;;;;;;;39.79;27.42;102091.72;5017627;28;20029;-81
2021/09/07 10:31:42;;;;;;;22.38;11.52;;;;;;;39.89;27.09;102088.00;5000747;28;20030;-82
2021/09/07 10:34:07;;;;;;;20.17;11.63;;;;;;;40.03;27.45;102075.78;5033869;28;20025;-83
2021/09/07 10:36:36;;;;;;;21.13;12.45;;;;;;;40.21;26.79;102077.00;5000908;28;20032;-82
2021/09/07 10:39:04;;;;;;;21.52;11.80;;;;;;;40.30;27.13;102077.19;5017360;28;20456;-82
2021/09/07 10:41:29;;;;;;;20.10;11.18;;;;;;;40.38;26.82;102074.56;5000404;28;20031;-81
2021/09/07 10:44:04;;;;;;;19.90;10.23;;;;;;;40.54;26.23;102070.47;5017287;28;20029;-81
2021/09/07 10:46:49;;;;;;;19.50;10.65;;;;;;;40.66;25.80;102061.63;5001286;28;20099;-81
2021/09/07 10:49:33;;;;;;;20.33;9.98;;;;;;;40.79;25.83;102057.25;5000266;28;20075;-84
2021/09/07 10:52:15;;;;;;;20.08;10.30;;;;;;;40.86;25.45;102054.88;5016826;28;20125;-81
2021/09/07 10:54:52;;;;;;;22.70;11.80;;;;;;;40.86;25.47;102054.88;5018184;28;20033;-82
2021/09/07 10:57:37;;;;;;;15.38;10.02;;;;;;;40.81;25.02;102063.41;5017406;28;20037;-82
2021/09/07 11:00:21;;;;;;;15.05;8.90;;;;;;;40.79;25.43;102054.44;5017079;28;20045;-82
2021/09/07 11:02:55;;;;;;;19.05;10.00;;;;;;;40.78;25.22;102052.75;5016598;28;20397;-82
2021/09/07 11:05:23;;;;;;;14.07;7.90;;;;;;;40.86;25.48;102050.09;5017581;28;20041;-81
2021/09/07 11:08:03;;;;;;;16.23;10.18;;;;;;;41.00;25.68;102050.22;5016894;28;20037;-81
2021/09/07 11:10:30;;;;;;;18.30;9.02;;;;;;;41.20;25.15;102044.28;5021217;28;20025;-81
2021/09/07 11:13:02;;;;;;;17.33;8.70;;;;;;;41.41;25.03;102050.44;5005135;28;20021;-81
2021/09/07 11:15:31;;;;;;;20.60;11.25;;;;;;;41.47;25.01;102027.53;5020655;28;20362;-81
2021/09/07 11:18:03;;;;;;;16.45;10.00;;;;;;;41.47;25.03;102033.16;5020272;28;20033;-81
2021/09/07 11:20:35;;;;;;;;;;;;;;;41.58;25.63;102034.66;5021125;28;20033;-81